sensor_id;sensor_type;location;lat;lon;timestamp;pressure;altitude;pressure_sealevel;temperature;humidity
9439;BME280;5176;42.622;25.386;2023-11-19T00:01:13;96724.38;;;5.14;95.60
9439;BME280;5176;42.622;25.386;2023-11-19T00:03:40;96730.41;;;5.14;94.13
9439;BME280;5176;42.622;25.386;2023-11-19T00:06:08;96722.69;;;5.13;91.22
9439;BME280;5176;42.622;25.386;2023-11-19T00:08:37;96718.34;;;5.13;89.90
9439;BME280;5176;42.622;25.386;2023-11-19T00:11:05;96720.00;;;5.14;89.91
9439;BME280;5176;42.622;25.386;2023-11-19T00:13:34;96706.44;;;5.09;90.33
9439;BME280;5176;42.622;25.386;2023-11-19T00:16:01;96714.28;;;5.25;88.63
9439;BME280;5176;42.622;25.386;2023-11-19T00:18:30;96730.09;;;5.20;88.25
9439;BME280;5176;42.622;25.386;2023-11-19T00:20:58;96732.03;;;5.17;89.83
9439;BME280;5176;42.622;25.386;2023-11-19T00:23:25;96740.44;;;5.22;89.67
9439;BME280;5176;42.622;25.386;2023-11-19T00:25:53;96755.19;;;5.22;90.08
9439;BME280;5176;42.622;25.386;2023-11-19T00:28:20;96755.56;;;5.14;90.00
9439;BME280;5176;42.622;25.386;2023-11-19T00:30:52;96755.63;;;5.12;89.87
9439;BME280;5176;42.622;25.386;2023-11-19T00:33:22;96752.19;;;5.12;89.77
9439;BME280;5176;42.622;25.386;2023-11-19T00:35:50;96754.41;;;5.19;90.47
9439;BME280;5176;42.622;25.386;2023-11-19T00:38:17;96761.75;;;5.11;88.18
9439;BME280;5176;42.622;25.386;2023-11-19T00:40:45;96757.25;;;5.15;86.87
9439;BME280;5176;42.622;25.386;2023-11-19T00:43:12;96756.16;;;5.19;88.05
9439;BME280;5176;42.622;25.386;2023-11-19T00:45:42;96755.88;;;5.25;87.79
9439;BME280;5176;42.622;25.386;2023-11-19T00:48:11;96744.72;;;5.23;87.88
9439;BME280;5176;42.622;25.386;2023-11-19T00:50:39;96748.78;;;5.29;87.78
9439;BME280;5176;42.622;25.386;2023-11-19T00:53:12;96744.25;;;5.32;87.97
9439;BME280;5176;42.622;25.386;2023-11-19T00:55:43;96757.22;;;5.32;86.70
9439;BME280;5176;42.622;25.386;2023-11-19T00:58:10;96765.94;;;5.31;85.69
9439;BME280;5176;42.622;25.386;2023-11-19T01:00:37;96764.63;;;5.40;87.05
9439;BME280;5176;42.622;25.386;2023-11-19T01:03:05;96753.56;;;5.36;86.16
9439;BME280;5176;42.622;25.386;2023-11-19T01:05:35;96754.25;;;5.40;86.48
9439;BME280;5176;42.622;25.386;2023-11-19T01:08:04;96757.94;;;5.36;85.44
9439;BME280;5176;42.622;25.386;2023-11-19T01:10:36;96759.59;;;5.37;84.15
9439;BME280;5176;42.622;25.386;2023-11-19T01:13:09;96733.47;;;5.23;84.87
9439;BME280;5176;42.622;25.386;2023-11-19T01:15:36;96756.22;;;5.35;87.17
9439;BME280;5176;42.622;25.386;2023-11-19T01:18:04;96760.84;;;5.30;87.25
9439;BME280;5176;42.622;25.386;2023-11-19T01:20:31;96768.78;;;5.27;86.65
9439;BME280;5176;42.622;25.386;2023-11-19T01:23:01;96754.63;;;5.32;85.89
9439;BME280;5176;42.622;25.386;2023-11-19T01:25:28;96765.72;;;5.36;83.00
9439;BME280;5176;42.622;25.386;2023-11-19T01:27:56;96766.94;;;5.46;82.86
9439;BME280;5176;42.622;25.386;2023-11-19T01:30:24;96770.22;;;5.50;81.46
9439;BME280;5176;42.622;25.386;2023-11-19T01:32:52;96770.16;;;5.51;80.76
9439;BME280;5176;42.622;25.386;2023-11-19T01:35:19;96790.94;;;5.51;80.14
9439;BME280;5176;42.622;25.386;2023-11-19T01:37:47;96777.72;;;5.56;78.57
9439;BME280;5176;42.622;25.386;2023-11-19T01:40:20;96762.03;;;5.57;77.73
9439;BME280;5176;42.622;25.386;2023-11-19T01:42:48;96778.38;;;5.59;76.89
9439;BME280;5176;42.622;25.386;2023-11-19T01:45:25;96758.69;;;5.55;78.57
9439;BME280;5176;42.622;25.386;2023-11-19T01:47:54;96775.56;;;5.64;77.21
9439;BME280;5176;42.622;25.386;2023-11-19T01:50:22;96772.03;;;5.65;76.41
9439;BME280;5176;42.622;25.386;2023-11-19T01:52:51;96766.00;;;5.64;76.58
9439;BME280;5176;42.622;25.386;2023-11-19T01:55:21;96767.53;;;5.68;75.20
9439;BME280;5176;42.622;25.386;2023-11-19T01:57:49;96764.84;;;5.70;74.91
9439;BME280;5176;42.622;25.386;2023-11-19T02:00:18;96772.56;;;5.71;75.19
9439;BME280;5176;42.622;25.386;2023-11-19T02:02:46;96768.50;;;5.66;75.56
9439;BME280;5176;42.622;25.386;2023-11-19T02:05:15;96773.56;;;5.69;75.82
9439;BME280;5176;42.622;25.386;2023-11-19T02:07:42;96776.31;;;5.66;74.96
9439;BME280;5176;42.622;25.386;2023-11-19T02:10:10;96775.38;;;5.67;74.63
9439;BME280;5176;42.622;25.386;2023-11-19T02:12:42;96761.53;;;5.66;73.74
9439;BME280;5176;42.622;25.386;2023-11-19T02:15:13;96772.72;;;5.68;72.91
9439;BME280;5176;42.622;25.386;2023-11-19T02:17:40;96769.13;;;5.71;74.14
9439;BME280;5176;42.622;25.386;2023-11-19T02:20:09;96774.22;;;5.72;72.91
9439;BME280;5176;42.622;25.386;2023-11-19T02:22:40;96751.75;;;5.71;73.90
9439;BME280;5176;42.622;25.386;2023-11-19T02:25:12;96765.69;;;5.70;73.18
9439;BME280;5176;42.622;25.386;2023-11-19T02:27:53;96767.53;;;5.68;72.23
9439;BME280;5176;42.622;25.386;2023-11-19T02:30:22;96758.63;;;5.72;72.53
9439;BME280;5176;42.622;25.386;2023-11-19T02:32:52;96761.63;;;5.65;73.04
9439;BME280;5176;42.622;25.386;2023-11-19T02:35:20;96782.34;;;5.66;73.88
9439;BME280;5176;42.622;25.386;2023-11-19T02:37:48;96770.19;;;5.67;72.73
9439;BME280;5176;42.622;25.386;2023-11-19T02:40:15;96766.66;;;5.68;73.68
9439;BME280;5176;42.622;25.386;2023-11-19T02:42:44;96782.22;;;5.69;72.54
9439;BME280;5176;42.622;25.386;2023-11-19T02:45:14;96768.09;;;5.73;72.32
9439;BME280;5176;42.622;25.386;2023-11-19T02:47:41;96768.50;;;5.66;71.45
9439;BME280;5176;42.622;25.386;2023-11-19T02:50:09;96789.31;;;5.66;72.62
9439;BME280;5176;42.622;25.386;2023-11-19T02:52:40;96782.34;;;5.66;72.45
9439;BME280;5176;42.622;25.386;2023-11-19T02:55:08;96801.56;;;5.64;73.48
9439;BME280;5176;42.622;25.386;2023-11-19T02:57:38;96803.72;;;5.56;72.45
9439;BME280;5176;42.622;25.386;2023-11-19T03:00:07;96782.53;;;5.46;72.68
9439;BME280;5176;42.622;25.386;2023-11-19T03:02:41;96737.91;;;5.20;72.77
9439;BME280;5176;42.622;25.386;2023-11-19T03:05:12;96807.38;;;5.69;72.41
9439;BME280;5176;42.622;25.386;2023-11-19T03:07:41;96804.16;;;5.64;72.27
9439;BME280;5176;42.622;25.386;2023-11-19T03:10:10;96818.13;;;5.61;73.31
9439;BME280;5176;42.622;25.386;2023-11-19T03:12:39;96802.47;;;5.63;73.02
9439;BME280;5176;42.622;25.386;2023-11-19T03:15:07;96815.63;;;5.60;72.42
9439;BME280;5176;42.622;25.386;2023-11-19T03:17:36;96813.94;;;5.59;72.47
9439;BME280;5176;42.622;25.386;2023-11-19T03:20:08;96819.00;;;5.62;73.71
9439;BME280;5176;42.622;25.386;2023-11-19T03:22:37;96810.34;;;5.61;73.63
9439;BME280;5176;42.622;25.386;2023-11-19T03:25:05;96822.88;;;5.53;73.78
9439;BME280;5176;42.622;25.386;2023-11-19T03:27:37;96809.97;;;5.52;74.36
9439;BME280;5176;42.622;25.386;2023-11-19T03:30:08;96830.78;;;5.52;74.28
9439;BME280;5176;42.622;25.386;2023-11-19T03:32:36;96809.34;;;5.46;73.62
9439;BME280;5176;42.622;25.386;2023-11-19T03:35:07;96828.41;;;5.47;73.52
9439;BME280;5176;42.622;25.386;2023-11-19T03:37:34;96768.53;;;5.14;74.06
9439;BME280;5176;42.622;25.386;2023-11-19T03:40:02;96811.13;;;5.46;74.87
9439;BME280;5176;42.622;25.386;2023-11-19T03:42:30;96824.97;;;5.46;73.78
9439;BME280;5176;42.622;25.386;2023-11-19T03:44:57;96822.44;;;5.45;73.56
9439;BME280;5176;42.622;25.386;2023-11-19T03:47:25;96836.59;;;5.57;72.95
9439;BME280;5176;42.622;25.386;2023-11-19T03:49:52;96831.31;;;5.58;73.40
9439;BME280;5176;42.622;25.386;2023-11-19T03:52:21;96823.06;;;5.50;73.49
9439;BME280;5176;42.622;25.386;2023-11-19T03:54:48;96832.75;;;5.46;73.69
9439;BME280;5176;42.622;25.386;2023-11-19T03:57:16;96793.53;;;5.34;73.93
9439;BME280;5176;42.622;25.386;2023-11-19T03:59:44;96832.44;;;5.53;72.89
9439;BME280;5176;42.622;25.386;2023-11-19T04:02:11;96842.75;;;5.54;71.94
9439;BME280;5176;42.622;25.386;2023-11-19T04:04:39;96834.06;;;5.55;71.04
9439;BME280;5176;42.622;25.386;2023-11-19T04:07:06;96850.44;;;5.57;72.02
9439;BME280;5176;42.622;25.386;2023-11-19T04:09:35;96869.69;;;5.53;71.55
9439;BME280;5176;42.622;25.386;2023-11-19T04:12:04;96856.59;;;5.55;72.97
9439;BME280;5176;42.622;25.386;2023-11-19T04:14:32;96859.06;;;5.58;72.32
9439;BME280;5176;42.622;25.386;2023-11-19T04:17:00;96855.41;;;5.62;71.78
9439;BME280;5176;42.622;25.386;2023-11-19T04:19:27;96866.47;;;5.65;71.59
9439;BME280;5176;42.622;25.386;2023-11-19T04:21:55;96865.72;;;5.63;70.32
9439;BME280;5176;42.622;25.386;2023-11-19T04:24:23;96870.94;;;5.63;69.86
9439;BME280;5176;42.622;25.386;2023-11-19T04:26:51;96888.56;;;5.74;70.23
9439;BME280;5176;42.622;25.386;2023-11-19T04:29:19;96888.13;;;5.66;70.43
9439;BME280;5176;42.622;25.386;2023-11-19T04:31:46;96901.84;;;5.69;70.18
9439;BME280;5176;42.622;25.386;2023-11-19T04:34:14;96902.66;;;5.70;70.84
9439;BME280;5176;42.622;25.386;2023-11-19T04:36:41;96886.66;;;5.60;69.81
9439;BME280;5176;42.622;25.386;2023-11-19T04:39:09;96913.22;;;5.67;70.48
9439;BME280;5176;42.622;25.386;2023-11-19T04:41:46;96896.75;;;5.66;70.46
9439;BME280;5176;42.622;25.386;2023-11-19T04:44:16;96914.84;;;5.69;70.32
9439;BME280;5176;42.622;25.386;2023-11-19T04:46:43;96905.16;;;5.54;70.67
9439;BME280;5176;42.622;25.386;2023-11-19T04:49:12;96918.56;;;5.64;70.27
9439;BME280;5176;42.622;25.386;2023-11-19T04:51:40;96919.53;;;5.61;70.12
9439;BME280;5176;42.622;25.386;2023-11-19T04:54:08;96925.53;;;5.63;71.90
9439;BME280;5176;42.622;25.386;2023-11-19T04:56:36;96930.94;;;5.59;69.84
9439;BME280;5176;42.622;25.386;2023-11-19T04:59:03;96950.53;;;5.66;69.33
9439;BME280;5176;42.622;25.386;2023-11-19T05:01:33;96946.75;;;5.54;70.03
9439;BME280;5176;42.622;25.386;2023-11-19T05:04:01;96949.31;;;5.56;69.02
9439;BME280;5176;42.622;25.386;2023-11-19T05:06:29;96957.78;;;5.59;70.11
9439;BME280;5176;42.622;25.386;2023-11-19T05:08:59;96953.50;;;5.58;71.11
9439;BME280;5176;42.622;25.386;2023-11-19T05:11:29;96944.31;;;5.51;71.13
9439;BME280;5176;42.622;25.386;2023-11-19T05:13:58;96962.53;;;5.51;71.12
9439;BME280;5176;42.622;25.386;2023-11-19T05:16:25;96967.63;;;5.53;71.15
9439;BME280;5176;42.622;25.386;2023-11-19T05:18:55;96976.16;;;5.56;71.24
9439;BME280;5176;42.622;25.386;2023-11-19T05:21:22;96982.09;;;5.58;72.33
9439;BME280;5176;42.622;25.386;2023-11-19T05:23:49;96982.41;;;5.52;72.03
9439;BME280;5176;42.622;25.386;2023-11-19T05:26:21;96998.75;;;5.54;72.71
9439;BME280;5176;42.622;25.386;2023-11-19T05:28:49;96993.28;;;5.60;73.95
9439;BME280;5176;42.622;25.386;2023-11-19T05:31:17;96996.16;;;5.54;73.58
9439;BME280;5176;42.622;25.386;2023-11-19T05:33:45;97001.38;;;5.54;71.98
9439;BME280;5176;42.622;25.386;2023-11-19T05:36:14;97000.88;;;5.46;71.90
9439;BME280;5176;42.622;25.386;2023-11-19T05:38:41;96998.16;;;5.49;71.91
9439;BME280;5176;42.622;25.386;2023-11-19T05:41:10;96999.84;;;5.50;72.24
9439;BME280;5176;42.622;25.386;2023-11-19T05:43:37;96963.94;;;5.39;73.24
9439;BME280;5176;42.622;25.386;2023-11-19T05:46:06;96978.25;;;5.48;71.82
9439;BME280;5176;42.622;25.386;2023-11-19T05:48:34;96971.63;;;5.42;71.68
9439;BME280;5176;42.622;25.386;2023-11-19T05:51:02;96984.59;;;5.42;70.61
9439;BME280;5176;42.622;25.386;2023-11-19T05:53:31;96994.84;;;5.45;69.94
9439;BME280;5176;42.622;25.386;2023-11-19T05:55:58;96988.72;;;5.46;71.24
9439;BME280;5176;42.622;25.386;2023-11-19T05:58:29;97014.88;;;5.43;70.65
9439;BME280;5176;42.622;25.386;2023-11-19T06:00:58;96952.63;;;5.04;71.85
9439;BME280;5176;42.622;25.386;2023-11-19T06:03:29;97019.38;;;5.40;72.73
9439;BME280;5176;42.622;25.386;2023-11-19T06:05:56;97007.09;;;5.43;73.39
9439;BME280;5176;42.622;25.386;2023-11-19T06:08:24;97005.88;;;5.51;72.77
9439;BME280;5176;42.622;25.386;2023-11-19T06:10:54;97005.13;;;5.49;72.65
9439;BME280;5176;42.622;25.386;2023-11-19T06:13:22;97003.84;;;5.57;70.73
9439;BME280;5176;42.622;25.386;2023-11-19T06:15:49;97010.63;;;5.60;70.85
9439;BME280;5176;42.622;25.386;2023-11-19T06:18:17;97006.06;;;5.65;71.31
9439;BME280;5176;42.622;25.386;2023-11-19T06:20:45;97008.41;;;5.52;70.71
9439;BME280;5176;42.622;25.386;2023-11-19T06:23:13;97010.63;;;5.60;70.46
9439;BME280;5176;42.622;25.386;2023-11-19T06:25:40;97014.44;;;5.53;70.58
9439;BME280;5176;42.622;25.386;2023-11-19T06:28:09;97021.31;;;5.54;70.34
9439;BME280;5176;42.622;25.386;2023-11-19T06:30:37;97030.88;;;5.53;71.23
9439;BME280;5176;42.622;25.386;2023-11-19T06:33:07;97012.06;;;5.48;71.03
9439;BME280;5176;42.622;25.386;2023-11-19T06:35:34;97019.34;;;5.59;70.03
9439;BME280;5176;42.622;25.386;2023-11-19T06:38:03;97021.97;;;5.59;70.45
9439;BME280;5176;42.622;25.386;2023-11-19T06:40:30;97011.72;;;5.56;70.23
9439;BME280;5176;42.622;25.386;2023-11-19T06:42:58;97010.50;;;5.63;70.77
9439;BME280;5176;42.622;25.386;2023-11-19T06:45:27;97010.72;;;5.58;69.81
9439;BME280;5176;42.622;25.386;2023-11-19T06:47:54;97013.22;;;5.60;70.18
9439;BME280;5176;42.622;25.386;2023-11-19T06:50:22;97025.31;;;5.61;69.48
9439;BME280;5176;42.622;25.386;2023-11-19T06:52:49;97022.25;;;5.53;69.21
9439;BME280;5176;42.622;25.386;2023-11-19T06:55:16;97020.19;;;5.59;69.39
9439;BME280;5176;42.622;25.386;2023-11-19T06:57:44;97018.66;;;5.55;69.41
9439;BME280;5176;42.622;25.386;2023-11-19T07:00:12;97007.94;;;5.61;69.12
9439;BME280;5176;42.622;25.386;2023-11-19T07:02:41;97017.00;;;5.71;68.86
9439;BME280;5176;42.622;25.386;2023-11-19T07:05:10;97027.22;;;5.76;67.97
9439;BME280;5176;42.622;25.386;2023-11-19T07:07:39;97011.31;;;5.82;68.11
9439;BME280;5176;42.622;25.386;2023-11-19T07:10:07;97002.25;;;5.91;68.31
9439;BME280;5176;42.622;25.386;2023-11-19T07:12:35;97009.44;;;6.03;66.64
9439;BME280;5176;42.622;25.386;2023-11-19T07:15:03;97012.97;;;6.19;66.16
9439;BME280;5176;42.622;25.386;2023-11-19T07:17:31;97009.53;;;6.36;65.78
9439;BME280;5176;42.622;25.386;2023-11-19T07:20:00;97022.38;;;6.57;66.11
9439;BME280;5176;42.622;25.386;2023-11-19T07:22:28;97017.28;;;6.71;64.50
9439;BME280;5176;42.622;25.386;2023-11-19T07:24:56;97030.31;;;6.71;61.00
9439;BME280;5176;42.622;25.386;2023-11-19T07:27:24;97044.22;;;6.87;62.21
9439;BME280;5176;42.622;25.386;2023-11-19T07:29:51;97042.63;;;7.18;62.67
9439;BME280;5176;42.622;25.386;2023-11-19T07:32:19;97049.19;;;7.41;61.70
9439;BME280;5176;42.622;25.386;2023-11-19T07:34:46;97050.13;;;7.55;57.65
9439;BME280;5176;42.622;25.386;2023-11-19T07:37:16;97055.09;;;7.60;57.50
9439;BME280;5176;42.622;25.386;2023-11-19T07:39:43;97060.34;;;7.76;59.54
9439;BME280;5176;42.622;25.386;2023-11-19T07:42:11;97054.16;;;7.92;57.26
9439;BME280;5176;42.622;25.386;2023-11-19T07:44:38;97071.59;;;7.92;56.68
9439;BME280;5176;42.622;25.386;2023-11-19T07:47:06;97075.34;;;8.02;56.63
9439;BME280;5176;42.622;25.386;2023-11-19T07:49:33;97070.13;;;8.02;57.59
9439;BME280;5176;42.622;25.386;2023-11-19T07:52:01;97081.75;;;8.12;56.15
9439;BME280;5176;42.622;25.386;2023-11-19T07:54:30;97082.44;;;8.16;56.27
9439;BME280;5176;42.622;25.386;2023-11-19T07:56:57;97095.41;;;8.17;54.42
9439;BME280;5176;42.622;25.386;2023-11-19T07:59:25;97085.03;;;8.16;56.05
9439;BME280;5176;42.622;25.386;2023-11-19T08:01:52;97083.88;;;8.06;55.58
9439;BME280;5176;42.622;25.386;2023-11-19T08:04:20;97080.31;;;8.07;55.35
9439;BME280;5176;42.622;25.386;2023-11-19T08:06:47;97086.63;;;8.18;56.67
9439;BME280;5176;42.622;25.386;2023-11-19T08:09:15;97094.63;;;8.31;54.72
9439;BME280;5176;42.622;25.386;2023-11-19T08:11:44;97096.97;;;8.36;54.10
9439;BME280;5176;42.622;25.386;2023-11-19T08:14:11;97067.50;;;8.18;54.14
9439;BME280;5176;42.622;25.386;2023-11-19T08:16:39;97107.41;;;8.36;54.10
9439;BME280;5176;42.622;25.386;2023-11-19T08:19:07;97105.22;;;8.28;54.13
9439;BME280;5176;42.622;25.386;2023-11-19T08:21:34;97101.94;;;8.40;53.29
9439;BME280;5176;42.622;25.386;2023-11-19T08:24:02;97080.25;;;8.54;54.34
9439;BME280;5176;42.622;25.386;2023-11-19T08:26:29;97080.28;;;8.68;53.09
9439;BME280;5176;42.622;25.386;2023-11-19T08:28:58;97090.78;;;8.83;52.46
9439;BME280;5176;42.622;25.386;2023-11-19T08:31:26;97065.03;;;8.91;52.21
9439;BME280;5176;42.622;25.386;2023-11-19T08:33:53;97080.81;;;9.18;51.44
9439;BME280;5176;42.622;25.386;2023-11-19T08:36:21;97097.63;;;9.28;50.02
9439;BME280;5176;42.622;25.386;2023-11-19T08:38:48;97106.78;;;9.21;50.75
9439;BME280;5176;42.622;25.386;2023-11-19T08:41:17;97099.41;;;9.42;50.75
9439;BME280;5176;42.622;25.386;2023-11-19T08:43:45;97102.19;;;9.67;50.53
9439;BME280;5176;42.622;25.386;2023-11-19T08:46:15;97092.81;;;9.92;49.85
9439;BME280;5176;42.622;25.386;2023-11-19T08:48:42;97103.91;;;9.95;49.09
9439;BME280;5176;42.622;25.386;2023-11-19T08:51:10;97099.28;;;10.13;48.41
9439;BME280;5176;42.622;25.386;2023-11-19T08:53:37;97085.44;;;10.25;48.37
9439;BME280;5176;42.622;25.386;2023-11-19T08:56:05;97083.16;;;10.33;48.27
9439;BME280;5176;42.622;25.386;2023-11-19T08:58:33;97104.31;;;10.57;48.07
9439;BME280;5176;42.622;25.386;2023-11-19T09:01:00;97108.41;;;10.74;47.58
9439;BME280;5176;42.622;25.386;2023-11-19T09:03:31;97102.22;;;10.75;47.88
9439;BME280;5176;42.622;25.386;2023-11-19T09:06:00;97111.47;;;10.81;46.85
9439;BME280;5176;42.622;25.386;2023-11-19T09:08:27;97111.88;;;10.75;46.10
9439;BME280;5176;42.622;25.386;2023-11-19T09:10:55;97111.72;;;10.51;46.69
9439;BME280;5176;42.622;25.386;2023-11-19T09:13:23;97108.16;;;10.52;47.40
9439;BME280;5176;42.622;25.386;2023-11-19T09:15:50;97113.19;;;10.55;47.32
9439;BME280;5176;42.622;25.386;2023-11-19T09:18:18;97110.72;;;10.39;47.34
9439;BME280;5176;42.622;25.386;2023-11-19T09:20:47;97109.28;;;10.48;47.43
9439;BME280;5176;42.622;25.386;2023-11-19T09:23:15;97104.78;;;10.50;47.30
9439;BME280;5176;42.622;25.386;2023-11-19T09:25:42;97047.84;;;10.39;47.56
9439;BME280;5176;42.622;25.386;2023-11-19T09:28:10;97109.56;;;10.70;45.84
9439;BME280;5176;42.622;25.386;2023-11-19T09:30:39;97104.53;;;10.80;46.58
9439;BME280;5176;42.622;25.386;2023-11-19T09:33:06;97110.22;;;10.86;45.84
9439;BME280;5176;42.622;25.386;2023-11-19T09:35:34;97101.00;;;10.94;47.04
9439;BME280;5176;42.622;25.386;2023-11-19T09:38:03;97109.28;;;10.87;46.05
9439;BME280;5176;42.622;25.386;2023-11-19T09:40:31;97092.69;;;10.87;45.73
9439;BME280;5176;42.622;25.386;2023-11-19T09:42:59;97092.59;;;10.88;45.53
9439;BME280;5176;42.622;25.386;2023-11-19T09:45:28;97076.13;;;10.86;45.41
9439;BME280;5176;42.622;25.386;2023-11-19T09:47:57;97072.56;;;11.00;46.01
9439;BME280;5176;42.622;25.386;2023-11-19T09:50:27;97076.44;;;10.82;45.09
9439;BME280;5176;42.622;25.386;2023-11-19T09:52:55;97066.88;;;10.81;46.14
9439;BME280;5176;42.622;25.386;2023-11-19T09:55:24;97065.84;;;10.71;45.88
9439;BME280;5176;42.622;25.386;2023-11-19T09:57:53;97059.75;;;10.70;45.46
9439;BME280;5176;42.622;25.386;2023-11-19T10:00:21;97063.13;;;10.72;45.98
9439;BME280;5176;42.622;25.386;2023-11-19T10:02:49;97071.41;;;10.79;45.91
9439;BME280;5176;42.622;25.386;2023-11-19T10:05:18;97065.94;;;10.82;45.13
9439;BME280;5176;42.622;25.386;2023-11-19T10:07:47;97068.47;;;10.83;45.00
9439;BME280;5176;42.622;25.386;2023-11-19T10:10:15;97063.00;;;10.74;46.01
9439;BME280;5176;42.622;25.386;2023-11-19T10:12:46;97060.25;;;10.62;45.66
9439;BME280;5176;42.622;25.386;2023-11-19T10:15:20;97057.34;;;10.80;45.68
9439;BME280;5176;42.622;25.386;2023-11-19T10:17:50;97056.53;;;10.92;45.73
9439;BME280;5176;42.622;25.386;2023-11-19T10:20:17;97066.25;;;11.03;45.43
9439;BME280;5176;42.622;25.386;2023-11-19T10:22:47;97057.66;;;11.26;45.26
9439;BME280;5176;42.622;25.386;2023-11-19T10:25:24;97072.28;;;11.17;45.32
9439;BME280;5176;42.622;25.386;2023-11-19T10:27:54;97072.34;;;11.29;46.59
9439;BME280;5176;42.622;25.386;2023-11-19T10:30:23;97067.03;;;11.17;45.89
9439;BME280;5176;42.622;25.386;2023-11-19T10:33:05;97082.00;;;11.15;46.89
9439;BME280;5176;42.622;25.386;2023-11-19T10:35:33;97021.19;;;10.85;45.98
9439;BME280;5176;42.622;25.386;2023-11-19T10:38:01;97070.25;;;11.34;45.64
9439;BME280;5176;42.622;25.386;2023-11-19T10:40:38;97065.75;;;11.10;45.77
9439;BME280;5176;42.622;25.386;2023-11-19T10:43:08;97046.88;;;11.05;45.95
9439;BME280;5176;42.622;25.386;2023-11-19T10:45:37;97040.56;;;11.08;46.97
9439;BME280;5176;42.622;25.386;2023-11-19T10:48:05;97039.13;;;10.91;46.28
9439;BME280;5176;42.622;25.386;2023-11-19T10:50:34;97055.69;;;11.04;47.15
9439;BME280;5176;42.622;25.386;2023-11-19T10:53:02;97056.72;;;11.14;46.17
9439;BME280;5176;42.622;25.386;2023-11-19T10:55:32;97040.44;;;10.97;45.19
9439;BME280;5176;42.622;25.386;2023-11-19T10:58:01;97053.38;;;11.00;46.00
9439;BME280;5176;42.622;25.386;2023-11-19T11:00:41;97036.78;;;10.86;46.28
9439;BME280;5176;42.622;25.386;2023-11-19T11:03:15;97029.22;;;10.82;46.78
9439;BME280;5176;42.622;25.386;2023-11-19T11:05:45;97030.59;;;10.75;46.74
9439;BME280;5176;42.622;25.386;2023-11-19T11:08:14;97042.25;;;10.83;46.70
9439;BME280;5176;42.622;25.386;2023-11-19T11:10:45;97036.16;;;10.83;46.96
9439;BME280;5176;42.622;25.386;2023-11-19T11:13:14;97034.47;;;10.82;46.10
9439;BME280;5176;42.622;25.386;2023-11-19T11:15:43;97032.06;;;10.66;45.89
9439;BME280;5176;42.622;25.386;2023-11-19T11:18:13;97034.38;;;10.58;45.75
9439;BME280;5176;42.622;25.386;2023-11-19T11:20:41;97033.19;;;10.62;46.27
9439;BME280;5176;42.622;25.386;2023-11-19T11:23:29;97019.56;;;10.44;45.82
9439;BME280;5176;42.622;25.386;2023-11-19T11:26:18;97023.13;;;10.69;46.23
9439;BME280;5176;42.622;25.386;2023-11-19T11:28:56;97021.03;;;10.61;45.63
9439;BME280;5176;42.622;25.386;2023-11-19T11:31:35;97011.50;;;10.60;46.04
9439;BME280;5176;42.622;25.386;2023-11-19T11:34:26;96993.88;;;10.49;46.37
9439;BME280;5176;42.622;25.386;2023-11-19T11:37:18;96990.84;;;10.55;46.44
9439;BME280;5176;42.622;25.386;2023-11-19T11:39:46;96985.19;;;10.61;46.53
9439;BME280;5176;42.622;25.386;2023-11-19T11:42:34;96998.94;;;10.78;46.07
9439;BME280;5176;42.622;25.386;2023-11-19T11:45:03;96995.78;;;10.73;45.45
9439;BME280;5176;42.622;25.386;2023-11-19T11:50:37;96988.13;;;10.95;45.38
9439;BME280;5176;42.622;25.386;2023-11-19T11:53:18;96985.41;;;10.84;45.74
9439;BME280;5176;42.622;25.386;2023-11-19T11:55:58;96965.28;;;10.84;45.23
9439;BME280;5176;42.622;25.386;2023-11-19T11:58:35;96949.31;;;10.75;45.98
9439;BME280;5176;42.622;25.386;2023-11-19T12:01:04;96935.38;;;10.74;46.49
9439;BME280;5176;42.622;25.386;2023-11-19T12:03:36;96924.69;;;10.77;45.94
9439;BME280;5176;42.622;25.386;2023-11-19T12:06:11;96925.00;;;10.85;45.83
9439;BME280;5176;42.622;25.386;2023-11-19T12:08:39;96916.69;;;10.91;46.39
9439;BME280;5176;42.622;25.386;2023-11-19T12:11:06;96918.94;;;11.09;45.37
9439;BME280;5176;42.622;25.386;2023-11-19T12:13:47;96925.34;;;11.17;44.70
9439;BME280;5176;42.622;25.386;2023-11-19T12:16:20;96912.97;;;11.19;45.44
9439;BME280;5176;42.622;25.386;2023-11-19T12:18:47;96904.16;;;11.44;45.14
9439;BME280;5176;42.622;25.386;2023-11-19T12:21:29;96913.34;;;11.50;44.79
9439;BME280;5176;42.622;25.386;2023-11-19T12:23:58;96917.31;;;11.56;44.52
9439;BME280;5176;42.622;25.386;2023-11-19T12:26:47;96914.38;;;11.60;44.28
9439;BME280;5176;42.622;25.386;2023-11-19T12:29:18;96916.16;;;11.60;44.44
9439;BME280;5176;42.622;25.386;2023-11-19T12:31:53;96933.78;;;11.34;43.86
9439;BME280;5176;42.622;25.386;2023-11-19T12:34:21;96938.94;;;11.35;44.20
9439;BME280;5176;42.622;25.386;2023-11-19T12:36:51;96930.84;;;11.38;44.05
9439;BME280;5176;42.622;25.386;2023-11-19T12:39:18;96941.00;;;11.43;44.35
9439;BME280;5176;42.622;25.386;2023-11-19T12:41:52;96932.31;;;11.30;44.69
9439;BME280;5176;42.622;25.386;2023-11-19T12:44:20;96938.38;;;11.43;43.97
9439;BME280;5176;42.622;25.386;2023-11-19T12:47:02;96922.09;;;11.14;44.79
9439;BME280;5176;42.622;25.386;2023-11-19T12:49:30;96917.50;;;11.05;44.54
9439;BME280;5176;42.622;25.386;2023-11-19T12:51:59;96903.88;;;11.00;45.26
9439;BME280;5176;42.622;25.386;2023-11-19T12:54:34;96929.84;;;11.15;44.43
9439;BME280;5176;42.622;25.386;2023-11-19T12:57:01;96926.81;;;11.09;45.12
9439;BME280;5176;42.622;25.386;2023-11-19T12:59:30;96910.47;;;11.05;45.05
9439;BME280;5176;42.622;25.386;2023-11-19T13:01:58;96886.34;;;11.00;45.34
9439;BME280;5176;42.622;25.386;2023-11-19T13:04:28;96921.16;;;11.15;44.74
9439;BME280;5176;42.622;25.386;2023-11-19T13:06:59;96908.47;;;11.09;44.97
9439;BME280;5176;42.622;25.386;2023-11-19T13:09:30;96912.56;;;11.13;44.91
9439;BME280;5176;42.622;25.386;2023-11-19T13:11:57;96908.56;;;11.07;45.28
9439;BME280;5176;42.622;25.386;2023-11-19T13:14:36;96905.25;;;10.93;45.16
9439;BME280;5176;42.622;25.386;2023-11-19T13:17:04;96909.66;;;10.92;44.77
9439;BME280;5176;42.622;25.386;2023-11-19T13:19:32;96911.94;;;10.97;45.41
9439;BME280;5176;42.622;25.386;2023-11-19T13:22:01;96897.25;;;11.07;44.93
9439;BME280;5176;42.622;25.386;2023-11-19T13:24:29;96877.84;;;10.97;44.89
9439;BME280;5176;42.622;25.386;2023-11-19T13:26:56;96914.09;;;11.15;44.72
9439;BME280;5176;42.622;25.386;2023-11-19T13:29:24;96896.19;;;11.09;44.88
9439;BME280;5176;42.622;25.386;2023-11-19T13:31:51;96911.19;;;11.07;44.49